Sequim, WA

4:09 AM PST on February 21, 2017 (GMT -0800)
Rue Lavande | | Change Station
Active Advisory: Small Craft Advisory

Elev 330 ft 48.07 °N, 123.10 °W | Updated 34 seconds ago

Overcast
Overcast
39.7 °F
Feels Like 40 °F
N
0.0
Wind Variable Wind from South
Gusts 0.0 mph

Today
High -- | Low -- °F
--% Chance of Precip.
Yesterday
High -- | Low -- °F
Precip. -- in
Pressure 29.75 in
Visibility 4.0 miles
Clouds Overcast 1200 ft
Windchill 40 °F
Dew Point 40 °F
Humidity 99%
Rainfall 0.00 in
Snow Depth Not available.
7:07 AM 5:44 PM
Waning Crescent, 26% visible
METAR KCLM 211153Z AUTO 25003KT 4SM -RA BR OVC012 05/05 A2974 RMK AO2 RAB42 SLP074 P0002 60005 70015 T00500050 10050 20044 51001
Pressure 29.75 in
Visibility 4.0 miles
Clouds Overcast 1200 ft
Windchill 40 °F
Dew Point 40 °F
Humidity 99%
Rainfall 0.00 in
Snow Depth Not available.
7:07 AM 5:44 PM
Waning Crescent, 26% visible
METAR KCLM 211153Z AUTO 25003KT 4SM -RA BR OVC012 05/05 A2974 RMK AO2 RAB42 SLP074 P0002 60005 70015 T00500050 10050 20044 51001

Get Your Daily Forecast Email!

Thanks for signing up!

Be on the lookout for a verification email in your inbox.

You'll start receiving the daily forecast at 8 AM.

×

10-Day Weather Forecast

Almanac

Astronomy

Feb. 21, 2017 Rise Set
Actual Time
Civil Twilight
Nautical Twilight
Astronomical Twilight
Moon
Length of Visible Light
Length of Day
Tomorrow will be .
, % of the Moon is Illuminated

Today's Extremes

State Highs State Lows

Community

WunderPhotos

Upload Photos

1,962,540 photos uploaded!

WunderBlog® & News

Nearby

Air Quality

  Air Quality AQ Index Pollutant
Not available.

Snow Depth

Station Depth Elevation

Earthquake Activity

City Distance Mag. Time & Date
Minimum magnitude displayed is 2.5.

Coastal Water Temperatures

Place Temperature

Stations

Nearby Weather Stations

Station Location Temp. Windchill Dew Point Humidity Wind Precip. Elev Updated Type
                   

Watches & Warnings

Small Craft Advisory
Issued: 2:50 AM PST Feb. 21, 2017 – National Weather Service

... Small Craft Advisory in effect from 4 PM this afternoon to 4 am
PST Wednesday...

The National Weather Service in Seattle has issued a Small Craft
Advisory... which is in effect from 4 PM this afternoon to 4 am PST
Wednesday.

* Winds... west winds increasing to 15 to 30 knots late this
afternoon and continuing into late tonight.

* Waves... wind waves 2 to 5 feet.

Precautionary/preparedness actions...

A Small Craft Advisory means that wind speeds of 21 to 33 knots are
expected to produce hazardous wave conditions to small craft.
Inexperienced mariners... especially those operating smaller vessels
should avoid navigating in these conditions.